MSC Flavia — 3FBD7 — position and weather

sailwx.info

Track history (hours):
 
Tides and Currents Weather Stations Pressure Air Temp Water Temp Dewpoint Dewpoint Depression Visibility Wind Speed Wind Dir Waves Ship Positions

MSC Flavia

Last reported at 2016-Jul-22 13:12 UTC. Time now 2016-Jul-30 20:41 UTC.
Position N 25°39' W 115°09'.
Warning: this ship's position is 8 days out of date.

Length 366 m; draft 14.7 m.

Type: Ship (hazmat cat A). MMSI: 373004000.

Date/timePositionNaut miles runAvg speedWind from/ knotsBaromVisibWave heightAir tempDewpointWater temp
2016-Jul-22 13:12N 25°39' W 115°09'1117.1
2016-Jul-22 12:33N 25°46' W 115°19'1717.2
2016-Jul-22 11:33N 25°57' W 115°34'1717.0
2016-Jul-22 10:32N 26°08' W 115°49'1816.8
2016-Jul-22 09:26N 26°19' W 116°05'2016.8
2016-Jul-22 08:13N 26°32' W 116°22'1116.9
2016-Jul-22 07:34N 26°39' W 116°32'3416.8
2016-Jul-22 05:34N 27°01' W 117°01'1716.4
2016-Jul-22 04:31N 27°11' W 117°16'3416.4
2016-Jul-22 02:26N 27°33' W 117°45'1416.4
2016-Jul-22 01:34N 27°42' W 117°58'1716.7
2016-Jul-22 00:33N 27°53' W 118°13'1716.5
2016-Jul-21 23:33N 28°03' W 118°27'2316.3
2016-Jul-21 22:11N 28°18' W 118°47'1016.3
2016-Jul-21 21:33N 28°24' W 118°56'1616.5
2016-Jul-21 20:33N 28°35' W 119°10'1716.6
2016-Jul-21 19:34N 28°45' W 119°25'1616.5
2016-Jul-21 18:34N 28°56' W 119°39'1616.5
2016-Jul-21 17:34N 29°06' W 119°54'1716.6
2016-Jul-21 16:34N 29°17' W 120°09'1716.7
2016-Jul-21 15:34N 29°27' W 120°24'1716.8
2016-Jul-21 14:34N 29°38' W 120°39'1716.9
2016-Jul-21 13:34N 29°49' W 120°54'1717.1
2016-Jul-21 12:34N 29°59' W 121°09'1717.1
2016-Jul-21 11:33N 30°10' W 121°24'1717.2
2016-Jul-21 10:34N 30°21' W 121°39'1717.1
2016-Jul-21 09:33N 30°32' W 121°55'1717.1
2016-Jul-21 08:33N 30°42' W 122°11'2017.0
2016-Jul-21 07:21N 30°55' W 122°29'1317.0
2016-Jul-21 06:34N 31°03' W 122°42'1717.0
2016-Jul-21 05:34N 31°14' W 122°57'1717.2
2016-Jul-21 04:33N 31°25' W 123°13'1717.1
2016-Jul-21 03:34N 31°36' W 123°28'  
Track history (hours):
 
Tides and Currents Weather Stations Pressure Air Temp Water Temp Dewpoint Dewpoint Depression Visibility Wind Speed Wind Dir Waves Ship Positions

MSC Flavia

Last reported at 2016-Jul-22 13:12 UTC. Time now 2016-Jul-30 20:41 UTC.
Position N 25°39' W 115°09'.
Warning: this ship's position is 8 days out of date.

Length 366 m; draft 14.7 m.

Type: Ship (hazmat cat A). MMSI: 373004000.

Date/timePositionNaut miles runAvg speedWind from/ knotsBaromVisibWave heightAir tempDewpointWater temp
2016-Jul-22 13:12N 25°39' W 115°09'1117.1
2016-Jul-22 12:33N 25°46' W 115°19'1717.2
2016-Jul-22 11:33N 25°57' W 115°34'1717.0
2016-Jul-22 10:32N 26°08' W 115°49'1816.8
2016-Jul-22 09:26N 26°19' W 116°05'2016.8
2016-Jul-22 08:13N 26°32' W 116°22'1116.9
2016-Jul-22 07:34N 26°39' W 116°32'3416.8
2016-Jul-22 05:34N 27°01' W 117°01'1716.4
2016-Jul-22 04:31N 27°11' W 117°16'3416.4
2016-Jul-22 02:26N 27°33' W 117°45'1416.4
2016-Jul-22 01:34N 27°42' W 117°58'1716.7
2016-Jul-22 00:33N 27°53' W 118°13'1716.5
2016-Jul-21 23:33N 28°03' W 118°27'2316.3
2016-Jul-21 22:11N 28°18' W 118°47'1016.3
2016-Jul-21 21:33N 28°24' W 118°56'1616.5
2016-Jul-21 20:33N 28°35' W 119°10'1716.6
2016-Jul-21 19:34N 28°45' W 119°25'1616.5
2016-Jul-21 18:34N 28°56' W 119°39'1616.5
2016-Jul-21 17:34N 29°06' W 119°54'1716.6
2016-Jul-21 16:34N 29°17' W 120°09'1716.7
2016-Jul-21 15:34N 29°27' W 120°24'1716.8
2016-Jul-21 14:34N 29°38' W 120°39'1716.9
2016-Jul-21 13:34N 29°49' W 120°54'1717.1
2016-Jul-21 12:34N 29°59' W 121°09'1717.1
2016-Jul-21 11:33N 30°10' W 121°24'1717.2
2016-Jul-21 10:34N 30°21' W 121°39'1717.1
2016-Jul-21 09:33N 30°32' W 121°55'1717.1
2016-Jul-21 08:33N 30°42' W 122°11'2017.0
2016-Jul-21 07:21N 30°55' W 122°29'1317.0
2016-Jul-21 06:34N 31°03' W 122°42'1717.0
2016-Jul-21 05:34N 31°14' W 122°57'1717.2
2016-Jul-21 04:33N 31°25' W 123°13'1717.1
2016-Jul-21 03:34N 31°36' W 123°28'  

Dump ship's entire track history